sensor_id;sensor_type;location;lat;lon;timestamp;temperature;humidity
14735;DHT22;7458;49.002;8.472;2023-01-08T00:00:50;9.00;99.90
14735;DHT22;7458;49.002;8.472;2023-01-08T00:03:16;8.90;99.90
14735;DHT22;7458;49.002;8.472;2023-01-08T00:05:42;9.00;99.90
14735;DHT22;7458;49.002;8.472;2023-01-08T00:08:09;9.00;99.90
14735;DHT22;7458;49.002;8.472;2023-01-08T00:10:36;9.00;99.90
14735;DHT22;7458;49.002;8.472;2023-01-08T00:13:03;9.00;99.90
14735;DHT22;7458;49.002;8.472;2023-01-08T00:15:29;9.00;99.90
14735;DHT22;7458;49.002;8.472;2023-01-08T00:17:58;8.90;99.90
14735;DHT22;7458;49.002;8.472;2023-01-08T00:20:23;8.90;99.90
14735;DHT22;7458;49.002;8.472;2023-01-08T00:22:50;8.90;99.90
14735;DHT22;7458;49.002;8.472;2023-01-08T00:25:17;8.90;99.90
14735;DHT22;7458;49.002;8.472;2023-01-08T00:27:44;8.90;99.90
14735;DHT22;7458;49.002;8.472;2023-01-08T00:30:11;8.80;99.90
14735;DHT22;7458;49.002;8.472;2023-01-08T00:32:37;8.90;99.90
14735;DHT22;7458;49.002;8.472;2023-01-08T00:35:03;8.80;99.90
14735;DHT22;7458;49.002;8.472;2023-01-08T00:37:29;8.80;99.90
14735;DHT22;7458;49.002;8.472;2023-01-08T00:39:55;8.80;99.90
14735;DHT22;7458;49.002;8.472;2023-01-08T00:42:21;8.80;99.90
14735;DHT22;7458;49.002;8.472;2023-01-08T00:44:47;8.90;99.90
14735;DHT22;7458;49.002;8.472;2023-01-08T00:47:12;8.90;99.90
14735;DHT22;7458;49.002;8.472;2023-01-08T00:49:39;8.90;99.90
14735;DHT22;7458;49.002;8.472;2023-01-08T00:52:05;9.00;99.90
14735;DHT22;7458;49.002;8.472;2023-01-08T00:54:31;8.90;99.90
14735;DHT22;7458;49.002;8.472;2023-01-08T00:56:57;8.90;99.90
14735;DHT22;7458;49.002;8.472;2023-01-08T00:59:23;9.00;99.90
14735;DHT22;7458;49.002;8.472;2023-01-08T01:01:48;9.00;99.90
14735;DHT22;7458;49.002;8.472;2023-01-08T01:04:14;8.90;99.90
14735;DHT22;7458;49.002;8.472;2023-01-08T01:06:43;8.90;99.90
14735;DHT22;7458;49.002;8.472;2023-01-08T01:09:08;8.90;99.90
14735;DHT22;7458;49.002;8.472;2023-01-08T01:11:34;9.00;99.90
14735;DHT22;7458;49.002;8.472;2023-01-08T01:14:00;9.00;99.90
14735;DHT22;7458;49.002;8.472;2023-01-08T01:16:26;9.00;99.90
14735;DHT22;7458;49.002;8.472;2023-01-08T01:18:52;9.00;99.90
14735;DHT22;7458;49.002;8.472;2023-01-08T01:21:30;9.10;99.90
14735;DHT22;7458;49.002;8.472;2023-01-08T01:24:02;9.10;99.90
14735;DHT22;7458;49.002;8.472;2023-01-08T01:26:29;9.10;99.90
14735;DHT22;7458;49.002;8.472;2023-01-08T01:28:57;9.10;99.90
14735;DHT22;7458;49.002;8.472;2023-01-08T01:31:25;9.00;99.90
14735;DHT22;7458;49.002;8.472;2023-01-08T01:33:52;9.00;99.90
14735;DHT22;7458;49.002;8.472;2023-01-08T01:36:19;9.00;99.90
14735;DHT22;7458;49.002;8.472;2023-01-08T01:38:50;9.00;99.90
14735;DHT22;7458;49.002;8.472;2023-01-08T01:41:34;8.90;99.90
14735;DHT22;7458;49.002;8.472;2023-01-08T01:44:35;8.90;99.90
14735;DHT22;7458;49.002;8.472;2023-01-08T01:49:42;8.90;99.90
14735;DHT22;7458;49.002;8.472;2023-01-08T01:52:17;8.80;99.90
14735;DHT22;7458;49.002;8.472;2023-01-08T01:54:45;8.80;99.90
14735;DHT22;7458;49.002;8.472;2023-01-08T01:57:11;8.80;99.90
14735;DHT22;7458;49.002;8.472;2023-01-08T01:59:36;8.80;99.90
14735;DHT22;7458;49.002;8.472;2023-01-08T02:02:02;8.80;99.90
14735;DHT22;7458;49.002;8.472;2023-01-08T02:04:28;8.80;99.90
14735;DHT22;7458;49.002;8.472;2023-01-08T02:07:12;8.80;99.90
14735;DHT22;7458;49.002;8.472;2023-01-08T02:09:52;8.80;99.90
14735;DHT22;7458;49.002;8.472;2023-01-08T02:12:31;8.80;99.90
14735;DHT22;7458;49.002;8.472;2023-01-08T02:15:13;8.70;99.90
14735;DHT22;7458;49.002;8.472;2023-01-08T02:21:23;8.70;99.90
14735;DHT22;7458;49.002;8.472;2023-01-08T02:26:25;8.70;99.90
14735;DHT22;7458;49.002;8.472;2023-01-08T02:31:29;8.70;99.90
14735;DHT22;7458;49.002;8.472;2023-01-08T02:33:56;8.70;99.90
14735;DHT22;7458;49.002;8.472;2023-01-08T02:42:38;8.60;99.90
14735;DHT22;7458;49.002;8.472;2023-01-08T02:52:02;8.60;99.90
14735;DHT22;7458;49.002;8.472;2023-01-08T02:54:28;8.60;99.90
14735;DHT22;7458;49.002;8.472;2023-01-08T02:57:01;8.60;99.90
14735;DHT22;7458;49.002;8.472;2023-01-08T02:59:31;8.60;99.90
14735;DHT22;7458;49.002;8.472;2023-01-08T03:02:01;8.60;99.90
14735;DHT22;7458;49.002;8.472;2023-01-08T03:04:30;8.60;99.90
14735;DHT22;7458;49.002;8.472;2023-01-08T03:07:04;8.70;99.90
14735;DHT22;7458;49.002;8.472;2023-01-08T03:09:30;8.80;99.90
14735;DHT22;7458;49.002;8.472;2023-01-08T03:12:01;8.80;99.90
14735;DHT22;7458;49.002;8.472;2023-01-08T03:15:13;8.80;99.90
14735;DHT22;7458;49.002;8.472;2023-01-08T03:17:49;8.80;99.90
14735;DHT22;7458;49.002;8.472;2023-01-08T03:20:20;8.90;99.90
14735;DHT22;7458;49.002;8.472;2023-01-08T03:22:52;8.90;99.90
14735;DHT22;7458;49.002;8.472;2023-01-08T03:25:22;8.90;99.90
14735;DHT22;7458;49.002;8.472;2023-01-08T03:27:57;9.00;99.90
14735;DHT22;7458;49.002;8.472;2023-01-08T03:30:27;9.00;99.90
14735;DHT22;7458;49.002;8.472;2023-01-08T03:32:57;9.00;99.90
14735;DHT22;7458;49.002;8.472;2023-01-08T03:35:25;9.00;99.90
14735;DHT22;7458;49.002;8.472;2023-01-08T03:38:22;9.00;99.90
14735;DHT22;7458;49.002;8.472;2023-01-08T03:40:58;9.00;99.90
14735;DHT22;7458;49.002;8.472;2023-01-08T03:43:27;9.00;99.90
14735;DHT22;7458;49.002;8.472;2023-01-08T03:45:56;9.00;99.90
14735;DHT22;7458;49.002;8.472;2023-01-08T03:48:27;8.90;99.90
14735;DHT22;7458;49.002;8.472;2023-01-08T03:50:56;9.00;99.90
14735;DHT22;7458;49.002;8.472;2023-01-08T03:53:22;9.00;99.90
14735;DHT22;7458;49.002;8.472;2023-01-08T03:55:48;9.00;99.90
14735;DHT22;7458;49.002;8.472;2023-01-08T03:58:13;9.00;99.90
14735;DHT22;7458;49.002;8.472;2023-01-08T04:00:39;9.00;99.90
14735;DHT22;7458;49.002;8.472;2023-01-08T04:03:05;9.00;99.90
14735;DHT22;7458;49.002;8.472;2023-01-08T04:05:30;9.00;99.90
14735;DHT22;7458;49.002;8.472;2023-01-08T04:07:57;9.10;99.90
14735;DHT22;7458;49.002;8.472;2023-01-08T04:10:23;9.10;99.90
14735;DHT22;7458;49.002;8.472;2023-01-08T04:12:49;9.10;99.90
14735;DHT22;7458;49.002;8.472;2023-01-08T04:15:16;9.10;99.90
14735;DHT22;7458;49.002;8.472;2023-01-08T04:17:42;9.00;99.90
14735;DHT22;7458;49.002;8.472;2023-01-08T04:20:08;9.80;99.90
14735;DHT22;7458;49.002;8.472;2023-01-08T04:22:34;9.00;99.90
14735;DHT22;7458;49.002;8.472;2023-01-08T04:25:00;9.00;99.90
14735;DHT22;7458;49.002;8.472;2023-01-08T04:27:26;8.80;99.90
14735;DHT22;7458;49.002;8.472;2023-01-08T04:29:51;8.80;99.90
14735;DHT22;7458;49.002;8.472;2023-01-08T04:32:17;8.60;99.90
14735;DHT22;7458;49.002;8.472;2023-01-08T04:34:44;8.60;99.90
14735;DHT22;7458;49.002;8.472;2023-01-08T04:37:09;8.50;99.90
14735;DHT22;7458;49.002;8.472;2023-01-08T04:39:35;8.50;99.90
14735;DHT22;7458;49.002;8.472;2023-01-08T04:42:01;8.60;99.90
14735;DHT22;7458;49.002;8.472;2023-01-08T04:44:27;8.60;99.90
14735;DHT22;7458;49.002;8.472;2023-01-08T04:46:52;9.00;99.90
14735;DHT22;7458;49.002;8.472;2023-01-08T04:49:18;8.50;99.90
14735;DHT22;7458;49.002;8.472;2023-01-08T04:51:44;8.40;99.90
14735;DHT22;7458;49.002;8.472;2023-01-08T04:54:10;8.40;99.90
14735;DHT22;7458;49.002;8.472;2023-01-08T04:56:36;8.40;99.90
14735;DHT22;7458;49.002;8.472;2023-01-08T04:59:02;8.40;99.90
14735;DHT22;7458;49.002;8.472;2023-01-08T05:01:28;8.40;99.90
14735;DHT22;7458;49.002;8.472;2023-01-08T05:03:55;8.40;99.90
14735;DHT22;7458;49.002;8.472;2023-01-08T05:06:27;8.40;99.90
14735;DHT22;7458;49.002;8.472;2023-01-08T05:08:54;8.40;99.90
14735;DHT22;7458;49.002;8.472;2023-01-08T05:11:20;8.40;99.90
14735;DHT22;7458;49.002;8.472;2023-01-08T05:13:48;8.40;99.90
14735;DHT22;7458;49.002;8.472;2023-01-08T05:16:15;8.40;99.90
14735;DHT22;7458;49.002;8.472;2023-01-08T05:18:44;8.40;99.90
14735;DHT22;7458;49.002;8.472;2023-01-08T05:21:10;8.40;99.90
14735;DHT22;7458;49.002;8.472;2023-01-08T05:23:36;8.50;99.90
14735;DHT22;7458;49.002;8.472;2023-01-08T05:26:03;8.50;99.90
14735;DHT22;7458;49.002;8.472;2023-01-08T05:28:31;8.60;99.90
14735;DHT22;7458;49.002;8.472;2023-01-08T05:30:58;8.50;99.90
14735;DHT22;7458;49.002;8.472;2023-01-08T05:33:25;8.50;99.90
14735;DHT22;7458;49.002;8.472;2023-01-08T05:35:51;8.60;99.90
14735;DHT22;7458;49.002;8.472;2023-01-08T05:38:17;8.70;99.90
14735;DHT22;7458;49.002;8.472;2023-01-08T05:40:43;8.60;99.90
14735;DHT22;7458;49.002;8.472;2023-01-08T05:43:11;8.60;99.90
14735;DHT22;7458;49.002;8.472;2023-01-08T05:45:36;8.60;99.90
14735;DHT22;7458;49.002;8.472;2023-01-08T05:48:06;8.70;99.90
14735;DHT22;7458;49.002;8.472;2023-01-08T05:50:32;8.70;99.90
14735;DHT22;7458;49.002;8.472;2023-01-08T05:52:58;8.70;99.90
14735;DHT22;7458;49.002;8.472;2023-01-08T05:55:24;8.80;99.90
14735;DHT22;7458;49.002;8.472;2023-01-08T05:57:50;8.80;99.90
14735;DHT22;7458;49.002;8.472;2023-01-08T06:00:15;8.80;99.90
14735;DHT22;7458;49.002;8.472;2023-01-08T06:02:45;8.80;99.90
14735;DHT22;7458;49.002;8.472;2023-01-08T06:05:12;8.80;99.90
14735;DHT22;7458;49.002;8.472;2023-01-08T06:07:37;8.80;99.90
14735;DHT22;7458;49.002;8.472;2023-01-08T06:10:03;8.80;99.90
14735;DHT22;7458;49.002;8.472;2023-01-08T06:12:30;8.80;99.90
14735;DHT22;7458;49.002;8.472;2023-01-08T06:14:55;8.80;99.90
14735;DHT22;7458;49.002;8.472;2023-01-08T06:17:21;8.80;99.90
14735;DHT22;7458;49.002;8.472;2023-01-08T06:19:47;8.80;99.90
14735;DHT22;7458;49.002;8.472;2023-01-08T06:22:13;8.80;99.90
14735;DHT22;7458;49.002;8.472;2023-01-08T06:24:38;8.80;99.90
14735;DHT22;7458;49.002;8.472;2023-01-08T06:27:04;8.80;99.90
14735;DHT22;7458;49.002;8.472;2023-01-08T06:29:30;8.80;99.90
14735;DHT22;7458;49.002;8.472;2023-01-08T06:31:55;8.80;99.90
14735;DHT22;7458;49.002;8.472;2023-01-08T06:34:21;8.80;99.90
14735;DHT22;7458;49.002;8.472;2023-01-08T06:36:47;8.80;99.90
14735;DHT22;7458;49.002;8.472;2023-01-08T06:39:13;8.90;99.90
14735;DHT22;7458;49.002;8.472;2023-01-08T06:41:39;8.90;99.90
14735;DHT22;7458;49.002;8.472;2023-01-08T06:44:05;8.90;99.90
14735;DHT22;7458;49.002;8.472;2023-01-08T06:46:30;9.00;99.90
14735;DHT22;7458;49.002;8.472;2023-01-08T06:48:56;9.00;99.90
14735;DHT22;7458;49.002;8.472;2023-01-08T06:51:22;8.90;99.90
14735;DHT22;7458;49.002;8.472;2023-01-08T06:53:47;8.90;99.90
14735;DHT22;7458;49.002;8.472;2023-01-08T06:56:13;8.80;99.90
14735;DHT22;7458;49.002;8.472;2023-01-08T06:58:39;8.80;99.90
14735;DHT22;7458;49.002;8.472;2023-01-08T07:01:05;8.80;99.90
14735;DHT22;7458;49.002;8.472;2023-01-08T07:03:31;8.80;99.90
14735;DHT22;7458;49.002;8.472;2023-01-08T07:05:57;8.80;99.90
14735;DHT22;7458;49.002;8.472;2023-01-08T07:08:23;8.80;99.90
14735;DHT22;7458;49.002;8.472;2023-01-08T07:10:48;8.80;99.90
14735;DHT22;7458;49.002;8.472;2023-01-08T07:13:14;8.80;99.90
14735;DHT22;7458;49.002;8.472;2023-01-08T07:15:41;8.80;99.90
14735;DHT22;7458;49.002;8.472;2023-01-08T07:18:09;8.80;99.90
14735;DHT22;7458;49.002;8.472;2023-01-08T07:20:36;8.80;99.90
14735;DHT22;7458;49.002;8.472;2023-01-08T07:23:04;8.70;99.90
14735;DHT22;7458;49.002;8.472;2023-01-08T07:25:32;8.80;99.90
14735;DHT22;7458;49.002;8.472;2023-01-08T07:27:58;8.80;99.90
14735;DHT22;7458;49.002;8.472;2023-01-08T07:30:24;8.80;99.90
14735;DHT22;7458;49.002;8.472;2023-01-08T07:32:51;8.80;99.90
14735;DHT22;7458;49.002;8.472;2023-01-08T07:35:17;8.80;99.90
14735;DHT22;7458;49.002;8.472;2023-01-08T07:37:42;8.80;99.90
14735;DHT22;7458;49.002;8.472;2023-01-08T07:40:10;8.90;99.90
14735;DHT22;7458;49.002;8.472;2023-01-08T07:42:36;8.90;99.90
14735;DHT22;7458;49.002;8.472;2023-01-08T07:45:03;8.70;99.90
14735;DHT22;7458;49.002;8.472;2023-01-08T07:47:29;9.00;99.90
14735;DHT22;7458;49.002;8.472;2023-01-08T07:49:55;9.00;99.90
14735;DHT22;7458;49.002;8.472;2023-01-08T07:52:21;9.00;99.90
14735;DHT22;7458;49.002;8.472;2023-01-08T07:54:47;9.00;99.90
14735;DHT22;7458;49.002;8.472;2023-01-08T07:57:12;9.00;99.90
14735;DHT22;7458;49.002;8.472;2023-01-08T07:59:38;9.00;99.90
14735;DHT22;7458;49.002;8.472;2023-01-08T08:02:04;9.00;99.90
14735;DHT22;7458;49.002;8.472;2023-01-08T08:04:29;9.00;99.90
14735;DHT22;7458;49.002;8.472;2023-01-08T08:06:55;9.00;99.90
14735;DHT22;7458;49.002;8.472;2023-01-08T08:09:21;9.00;99.90
14735;DHT22;7458;49.002;8.472;2023-01-08T08:11:47;9.00;99.90
14735;DHT22;7458;49.002;8.472;2023-01-08T08:14:12;9.00;99.90
14735;DHT22;7458;49.002;8.472;2023-01-08T08:16:38;9.10;99.90
14735;DHT22;7458;49.002;8.472;2023-01-08T08:19:04;9.10;99.90
14735;DHT22;7458;49.002;8.472;2023-01-08T08:21:30;9.10;99.90
14735;DHT22;7458;49.002;8.472;2023-01-08T08:23:56;9.10;99.90
14735;DHT22;7458;49.002;8.472;2023-01-08T08:26:23;9.10;99.90
14735;DHT22;7458;49.002;8.472;2023-01-08T08:28:49;9.10;99.90
14735;DHT22;7458;49.002;8.472;2023-01-08T08:31:15;9.10;99.90
14735;DHT22;7458;49.002;8.472;2023-01-08T08:33:41;9.10;99.90
14735;DHT22;7458;49.002;8.472;2023-01-08T08:36:07;9.10;99.90
14735;DHT22;7458;49.002;8.472;2023-01-08T08:38:33;9.20;99.90
14735;DHT22;7458;49.002;8.472;2023-01-08T08:41:01;9.10;99.90
14735;DHT22;7458;49.002;8.472;2023-01-08T08:43:27;9.10;99.90
14735;DHT22;7458;49.002;8.472;2023-01-08T08:45:54;9.20;99.90
14735;DHT22;7458;49.002;8.472;2023-01-08T08:48:21;9.20;99.90
14735;DHT22;7458;49.002;8.472;2023-01-08T08:50:47;9.20;99.90
14735;DHT22;7458;49.002;8.472;2023-01-08T08:53:13;9.20;99.90
14735;DHT22;7458;49.002;8.472;2023-01-08T08:55:39;9.30;99.90
14735;DHT22;7458;49.002;8.472;2023-01-08T08:58:07;9.30;99.90
14735;DHT22;7458;49.002;8.472;2023-01-08T09:00:36;9.30;99.90
14735;DHT22;7458;49.002;8.472;2023-01-08T09:03:03;9.40;99.90
14735;DHT22;7458;49.002;8.472;2023-01-08T09:05:29;9.40;99.90
14735;DHT22;7458;49.002;8.472;2023-01-08T09:07:55;9.40;99.90
14735;DHT22;7458;49.002;8.472;2023-01-08T09:10:21;9.50;99.90
14735;DHT22;7458;49.002;8.472;2023-01-08T09:12:48;9.50;99.90
14735;DHT22;7458;49.002;8.472;2023-01-08T09:15:14;9.50;99.90
14735;DHT22;7458;49.002;8.472;2023-01-08T09:17:40;9.50;99.90
14735;DHT22;7458;49.002;8.472;2023-01-08T09:20:06;9.50;99.90
14735;DHT22;7458;49.002;8.472;2023-01-08T09:22:32;9.50;99.90
14735;DHT22;7458;49.002;8.472;2023-01-08T09:24:58;9.50;99.90
14735;DHT22;7458;49.002;8.472;2023-01-08T09:27:23;9.50;99.90
14735;DHT22;7458;49.002;8.472;2023-01-08T09:29:49;9.40;99.90
14735;DHT22;7458;49.002;8.472;2023-01-08T09:32:15;9.40;99.90
14735;DHT22;7458;49.002;8.472;2023-01-08T09:34:41;9.40;99.90
14735;DHT22;7458;49.002;8.472;2023-01-08T09:37:06;9.60;99.90
14735;DHT22;7458;49.002;8.472;2023-01-08T09:39:32;9.60;99.90
14735;DHT22;7458;49.002;8.472;2023-01-08T09:42:02;9.50;99.90
14735;DHT22;7458;49.002;8.472;2023-01-08T09:44:35;9.50;99.90
14735;DHT22;7458;49.002;8.472;2023-01-08T09:47:04;9.50;99.90
14735;DHT22;7458;49.002;8.472;2023-01-08T09:49:39;9.50;99.90
14735;DHT22;7458;49.002;8.472;2023-01-08T09:52:12;9.60;99.90
14735;DHT22;7458;49.002;8.472;2023-01-08T09:54:40;9.60;99.90
14735;DHT22;7458;49.002;8.472;2023-01-08T09:57:10;9.60;99.90
14735;DHT22;7458;49.002;8.472;2023-01-08T09:59:40;9.60;99.90
14735;DHT22;7458;49.002;8.472;2023-01-08T10:02:21;9.70;99.90
14735;DHT22;7458;49.002;8.472;2023-01-08T10:04:57;9.70;99.90
14735;DHT22;7458;49.002;8.472;2023-01-08T10:07:26;9.80;99.90
14735;DHT22;7458;49.002;8.472;2023-01-08T10:09:55;9.90;99.90
14735;DHT22;7458;49.002;8.472;2023-01-08T10:12:26;9.90;99.90
14735;DHT22;7458;49.002;8.472;2023-01-08T10:14:58;9.90;99.90
14735;DHT22;7458;49.002;8.472;2023-01-08T10:20:14;10.00;99.90
14735;DHT22;7458;49.002;8.472;2023-01-08T10:22:46;10.00;99.90
14735;DHT22;7458;49.002;8.472;2023-01-08T10:25:19;10.00;99.90
14735;DHT22;7458;49.002;8.472;2023-01-08T10:27:50;10.00;99.90
14735;DHT22;7458;49.002;8.472;2023-01-08T10:30:20;10.10;99.90
14735;DHT22;7458;49.002;8.472;2023-01-08T10:32:53;10.10;99.90
14735;DHT22;7458;49.002;8.472;2023-01-08T10:35:28;10.10;99.90
14735;DHT22;7458;49.002;8.472;2023-01-08T10:37:58;10.10;99.90
14735;DHT22;7458;49.002;8.472;2023-01-08T10:45:38;10.30;99.90
14735;DHT22;7458;49.002;8.472;2023-01-08T10:48:11;10.20;99.90
14735;DHT22;7458;49.002;8.472;2023-01-08T10:50:41;10.30;99.90
14735;DHT22;7458;49.002;8.472;2023-01-08T10:53:23;10.30;99.90
14735;DHT22;7458;49.002;8.472;2023-01-08T10:56:00;10.40;99.90
14735;DHT22;7458;49.002;8.472;2023-01-08T10:58:29;10.40;99.90
14735;DHT22;7458;49.002;8.472;2023-01-08T11:01:24;10.40;99.90
14735;DHT22;7458;49.002;8.472;2023-01-08T11:04:04;10.50;99.90
14735;DHT22;7458;49.002;8.472;2023-01-08T11:06:33;10.50;99.90
14735;DHT22;7458;49.002;8.472;2023-01-08T11:09:18;10.50;99.90
14735;DHT22;7458;49.002;8.472;2023-01-08T11:11:48;10.50;99.90
14735;DHT22;7458;49.002;8.472;2023-01-08T11:14:27;10.50;99.90
14735;DHT22;7458;49.002;8.472;2023-01-08T11:17:08;10.60;99.90
14735;DHT22;7458;49.002;8.472;2023-01-08T11:19:35;10.60;99.90
14735;DHT22;7458;49.002;8.472;2023-01-08T11:22:02;10.70;99.90
14735;DHT22;7458;49.002;8.472;2023-01-08T11:24:32;10.80;99.90
14735;DHT22;7458;49.002;8.472;2023-01-08T11:30:16;10.90;99.90
14735;DHT22;7458;49.002;8.472;2023-01-08T11:35:40;10.90;99.90
14735;DHT22;7458;49.002;8.472;2023-01-08T11:38:12;11.00;99.90
14735;DHT22;7458;49.002;8.472;2023-01-08T11:50:27;11.30;99.90
14735;DHT22;7458;49.002;8.472;2023-01-08T11:53:22;11.40;99.90
14735;DHT22;7458;49.002;8.472;2023-01-08T12:02:25;11.30;99.90
14735;DHT22;7458;49.002;8.472;2023-01-08T12:05:24;11.20;99.90
14735;DHT22;7458;49.002;8.472;2023-01-08T12:08:06;11.20;99.90
14735;DHT22;7458;49.002;8.472;2023-01-08T12:11:05;11.20;99.90
14735;DHT22;7458;49.002;8.472;2023-01-08T12:13:51;11.10;99.90
14735;DHT22;7458;49.002;8.472;2023-01-08T12:22:02;10.80;99.90
14735;DHT22;7458;49.002;8.472;2023-01-08T12:27:46;10.70;99.90
14735;DHT22;7458;49.002;8.472;2023-01-08T12:30:30;10.70;99.90
14735;DHT22;7458;49.002;8.472;2023-01-08T12:33:12;10.70;99.90
14735;DHT22;7458;49.002;8.472;2023-01-08T12:35:53;10.80;99.90
14735;DHT22;7458;49.002;8.472;2023-01-08T12:38:29;10.80;99.90
14735;DHT22;7458;49.002;8.472;2023-01-08T12:41:04;10.90;99.90
14735;DHT22;7458;49.002;8.472;2023-01-08T12:43:42;11.00;99.90
14735;DHT22;7458;49.002;8.472;2023-01-08T12:46:11;11.00;99.90
14735;DHT22;7458;49.002;8.472;2023-01-08T12:48:43;11.00;99.90
14735;DHT22;7458;49.002;8.472;2023-01-08T12:51:23;11.00;99.90
14735;DHT22;7458;49.002;8.472;2023-01-08T12:56:48;11.20;99.90
14735;DHT22;7458;49.002;8.472;2023-01-08T13:07:56;11.40;99.90
14735;DHT22;7458;49.002;8.472;2023-01-08T13:12:56;11.40;99.90
14735;DHT22;7458;49.002;8.472;2023-01-08T13:15:25;11.40;99.90
14735;DHT22;7458;49.002;8.472;2023-01-08T13:17:57;11.40;99.90
14735;DHT22;7458;49.002;8.472;2023-01-08T13:20:31;11.40;99.90
14735;DHT22;7458;49.002;8.472;2023-01-08T13:23:00;11.30;99.90
14735;DHT22;7458;49.002;8.472;2023-01-08T13:25:36;11.30;99.90
14735;DHT22;7458;49.002;8.472;2023-01-08T13:30:51;11.30;99.90
14735;DHT22;7458;49.002;8.472;2023-01-08T13:41:36;11.20;99.90
14735;DHT22;7458;49.002;8.472;2023-01-08T13:44:23;11.20;99.90
14735;DHT22;7458;49.002;8.472;2023-01-08T13:46:54;11.20;99.90
14735;DHT22;7458;49.002;8.472;2023-01-08T13:49:43;11.20;99.90
14735;DHT22;7458;49.002;8.472;2023-01-08T13:55:15;11.10;99.90
14735;DHT22;7458;49.002;8.472;2023-01-08T13:57:50;11.00;99.90
14735;DHT22;7458;49.002;8.472;2023-01-08T14:00:29;11.10;99.90
14735;DHT22;7458;49.002;8.472;2023-01-08T14:02:59;11.10;99.90
14735;DHT22;7458;49.002;8.472;2023-01-08T14:05:32;11.20;99.90
14735;DHT22;7458;49.002;8.472;2023-01-08T14:08:01;11.20;99.90
14735;DHT22;7458;49.002;8.472;2023-01-08T14:10:28;11.30;99.90
14735;DHT22;7458;49.002;8.472;2023-01-08T14:13:06;11.50;99.90
14735;DHT22;7458;49.002;8.472;2023-01-08T14:15:34;11.60;99.90
14735;DHT22;7458;49.002;8.472;2023-01-08T14:18:03;11.70;99.90
14735;DHT22;7458;49.002;8.472;2023-01-08T14:20:31;11.80;99.90
14735;DHT22;7458;49.002;8.472;2023-01-08T14:23:00;11.80;99.90
14735;DHT22;7458;49.002;8.472;2023-01-08T14:25:27;11.80;99.90
14735;DHT22;7458;49.002;8.472;2023-01-08T14:27:56;11.80;99.90
14735;DHT22;7458;49.002;8.472;2023-01-08T14:30:25;11.80;99.90
14735;DHT22;7458;49.002;8.472;2023-01-08T14:32:51;11.80;99.90
14735;DHT22;7458;49.002;8.472;2023-01-08T14:35:30;11.70;99.90
14735;DHT22;7458;49.002;8.472;2023-01-08T14:38:00;11.70;99.90
14735;DHT22;7458;49.002;8.472;2023-01-08T14:40:34;11.70;99.90
14735;DHT22;7458;49.002;8.472;2023-01-08T14:43:11;11.70;99.90
14735;DHT22;7458;49.002;8.472;2023-01-08T14:45:45;11.70;99.90
14735;DHT22;7458;49.002;8.472;2023-01-08T14:50:44;11.70;99.90
14735;DHT22;7458;49.002;8.472;2023-01-08T14:53:28;11.70;99.90
14735;DHT22;7458;49.002;8.472;2023-01-08T14:55:58;11.70;99.90
14735;DHT22;7458;49.002;8.472;2023-01-08T14:58:26;11.80;99.90
14735;DHT22;7458;49.002;8.472;2023-01-08T15:00:56;11.80;99.90
14735;DHT22;7458;49.002;8.472;2023-01-08T15:03:38;11.80;99.90
14735;DHT22;7458;49.002;8.472;2023-01-08T15:06:08;11.70;99.90
14735;DHT22;7458;49.002;8.472;2023-01-08T15:13:53;11.70;99.90
14735;DHT22;7458;49.002;8.472;2023-01-08T15:16:28;11.70;99.90
14735;DHT22;7458;49.002;8.472;2023-01-08T15:19:14;11.70;99.90
14735;DHT22;7458;49.002;8.472;2023-01-08T15:21:49;11.60;99.90
14735;DHT22;7458;49.002;8.472;2023-01-08T15:24:26;11.60;99.90
14735;DHT22;7458;49.002;8.472;2023-01-08T15:26:57;11.60;99.90
14735;DHT22;7458;49.002;8.472;2023-01-08T15:29:29;11.60;99.90
14735;DHT22;7458;49.002;8.472;2023-01-08T15:32:09;11.60;99.90
14735;DHT22;7458;49.002;8.472;2023-01-08T15:34:44;11.60;99.90
14735;DHT22;7458;49.002;8.472;2023-01-08T15:37:11;11.60;99.90
14735;DHT22;7458;49.002;8.472;2023-01-08T15:39:37;11.60;99.90
14735;DHT22;7458;49.002;8.472;2023-01-08T15:42:19;11.70;99.90
14735;DHT22;7458;49.002;8.472;2023-01-08T15:45:15;9.50;99.90
14735;DHT22;7458;49.002;8.472;2023-01-08T15:47:42;11.60;99.90
14735;DHT22;7458;49.002;8.472;2023-01-08T15:50:08;11.60;99.90
14735;DHT22;7458;49.002;8.472;2023-01-08T15:52:36;11.60;99.90
14735;DHT22;7458;49.002;8.472;2023-01-08T15:55:04;11.50;99.90
14735;DHT22;7458;49.002;8.472;2023-01-08T15:57:31;11.60;99.90
14735;DHT22;7458;49.002;8.472;2023-01-08T15:59:57;11.60;99.90
14735;DHT22;7458;49.002;8.472;2023-01-08T16:02:24;11.60;99.90
14735;DHT22;7458;49.002;8.472;2023-01-08T16:04:54;11.60;99.90
14735;DHT22;7458;49.002;8.472;2023-01-08T16:07:21;11.60;99.90
14735;DHT22;7458;49.002;8.472;2023-01-08T16:09:47;11.60;99.90
14735;DHT22;7458;49.002;8.472;2023-01-08T16:12:13;11.60;99.90
14735;DHT22;7458;49.002;8.472;2023-01-08T16:14:40;11.60;99.90
14735;DHT22;7458;49.002;8.472;2023-01-08T16:17:06;11.50;99.90
14735;DHT22;7458;49.002;8.472;2023-01-08T16:19:33;11.50;99.90
14735;DHT22;7458;49.002;8.472;2023-01-08T16:21:59;11.60;99.90
14735;DHT22;7458;49.002;8.472;2023-01-08T16:24:25;11.50;99.90
14735;DHT22;7458;49.002;8.472;2023-01-08T16:26:51;11.60;99.90
14735;DHT22;7458;49.002;8.472;2023-01-08T16:29:17;11.50;99.90
14735;DHT22;7458;49.002;8.472;2023-01-08T16:31:47;11.60;99.90
14735;DHT22;7458;49.002;8.472;2023-01-08T16:34:13;11.50;99.90
14735;DHT22;7458;49.002;8.472;2023-01-08T16:36:40;11.50;99.90
14735;DHT22;7458;49.002;8.472;2023-01-08T16:39:05;11.50;99.90
14735;DHT22;7458;49.002;8.472;2023-01-08T16:41:31;11.50;99.90
14735;DHT22;7458;49.002;8.472;2023-01-08T16:43:57;11.50;99.90
14735;DHT22;7458;49.002;8.472;2023-01-08T16:46:23;11.50;99.90
14735;DHT22;7458;49.002;8.472;2023-01-08T16:48:49;11.50;99.90
14735;DHT22;7458;49.002;8.472;2023-01-08T16:51:15;11.50;99.90
14735;DHT22;7458;49.002;8.472;2023-01-08T16:53:41;11.50;99.90
14735;DHT22;7458;49.002;8.472;2023-01-08T16:56:08;11.50;99.90
14735;DHT22;7458;49.002;8.472;2023-01-08T16:58:35;11.50;99.90
14735;DHT22;7458;49.002;8.472;2023-01-08T17:01:06;11.50;99.90
14735;DHT22;7458;49.002;8.472;2023-01-08T17:03:34;11.40;99.90
14735;DHT22;7458;49.002;8.472;2023-01-08T17:06:08;9.50;99.90
14735;DHT22;7458;49.002;8.472;2023-01-08T17:08:35;11.40;99.90
14735;DHT22;7458;49.002;8.472;2023-01-08T17:11:18;11.40;99.90
14735;DHT22;7458;49.002;8.472;2023-01-08T17:13:47;11.40;99.90
14735;DHT22;7458;49.002;8.472;2023-01-08T17:16:15;11.30;99.90
14735;DHT22;7458;49.002;8.472;2023-01-08T17:18:42;11.30;99.90
14735;DHT22;7458;49.002;8.472;2023-01-08T17:21:10;11.20;99.90
14735;DHT22;7458;49.002;8.472;2023-01-08T17:23:37;11.20;99.90
14735;DHT22;7458;49.002;8.472;2023-01-08T17:26:09;11.20;99.90
14735;DHT22;7458;49.002;8.472;2023-01-08T17:28:38;11.20;99.90
14735;DHT22;7458;49.002;8.472;2023-01-08T17:31:07;11.10;99.90
14735;DHT22;7458;49.002;8.472;2023-01-08T17:33:35;11.10;99.90
14735;DHT22;7458;49.002;8.472;2023-01-08T17:36:22;11.00;99.90
14735;DHT22;7458;49.002;8.472;2023-01-08T17:38:51;11.10;99.90
14735;DHT22;7458;49.002;8.472;2023-01-08T17:41:19;11.00;99.90
14735;DHT22;7458;49.002;8.472;2023-01-08T17:44:06;11.10;99.90
14735;DHT22;7458;49.002;8.472;2023-01-08T17:46:35;11.10;99.90
14735;DHT22;7458;49.002;8.472;2023-01-08T17:49:03;11.00;99.90